Time;durP1;ratioP1;P1;durP2;ratioP2;P2;SDS_P1;SDS_P2;PMS_P1;PMS_P2;Temp;Humidity;BMP_temperature;BMP_pressure;BME280_temperature;BME280_humidity;BME280_pressure;Samples;Min_cycle;Max_cycle;Signal;HPM_P1;HPM_P2
2023/08/26 00:00:17;;;;;;;48.33;28.92;;;;;;;-146.25;100.00;52307.38;2080972;28;35188;-67
2023/08/26 00:01:21;;;;;;;53.95;29.83;;;;;;;-146.25;100.00;52287.09;2081219;28;20038;-67
2023/08/26 00:02:24;;;;;;;47.38;29.25;;;;;;;-146.25;100.00;52315.47;2080082;28;35460;-66
2023/08/26 00:03:26;;;;;;;53.65;30.10;;;;;;;-146.25;100.00;52264.78;2080576;28;35224;-67
2023/08/26 00:04:28;;;;;;;57.05;31.20;;;;;;;-146.25;100.00;52319.53;2080577;28;33632;-67
2023/08/26 00:05:29;;;;;;;64.65;32.90;;;;;;;-146.25;100.00;52278.97;2080674;28;34074;-67
2023/08/26 00:06:31;;;;;;;56.78;31.25;;;;;;;-146.25;100.00;52301.28;2080219;28;34189;-67
2023/08/26 00:07:33;;;;;;;55.67;32.00;;;;;;;-146.25;100.00;52274.94;2080754;28;30793;-66
2023/08/26 00:08:35;;;;;;;59.20;32.38;;;;;;;-146.25;100.00;52299.25;2080280;28;37505;-66
2023/08/26 00:09:36;;;;;;;62.92;33.95;;;;;;;-146.25;100.00;52311.44;2080236;28;37670;-67
2023/08/26 00:10:38;;;;;;;58.88;31.00;;;;;;;-146.25;100.00;52333.72;2080645;28;30699;-66
2023/08/26 00:11:45;;;;;;;60.28;32.22;;;;;;;-146.25;100.00;52305.34;2081181;28;20050;-68
2023/08/26 00:12:47;;;;;;;60.47;33.20;;;;;;;-146.25;100.00;52270.88;2079898;28;21012;-66
2023/08/26 00:13:49;;;;;;;61.05;33.47;;;;;;;-146.25;100.00;52301.28;2080492;28;35961;-67
2023/08/26 00:14:53;;;;;;;59.03;32.38;;;;;;;-146.25;100.00;52293.19;2080200;28;36311;-67
2023/08/26 00:15:55;;;;;;;60.05;32.50;;;;;;;-146.25;100.00;52307.38;2080380;28;34724;-66
2023/08/26 00:16:57;;;;;;;60.05;31.98;;;;;;;-146.25;100.00;52285.06;2080382;28;38092;-67
2023/08/26 00:18:00;;;;;;;56.35;30.55;;;;;;;-146.25;100.00;52278.97;2081381;28;20115;-67
2023/08/26 00:19:02;;;;;;;61.15;34.13;;;;;;;-146.25;100.00;52301.28;2080202;28;35321;-67
2023/08/26 00:20:09;;;;;;;60.67;34.15;;;;;;;-146.25;100.00;52311.44;2080516;28;36209;-67
2023/08/26 00:21:10;;;;;;;55.58;32.53;;;;;;;-146.25;100.00;52291.16;2081350;28;20197;-66
2023/08/26 00:22:12;;;;;;;62.15;33.88;;;;;;;-146.25;100.00;52291.16;2080968;28;35981;-66
2023/08/26 00:23:15;;;;;;;63.72;34.10;;;;;;;-146.25;100.00;52297.22;2079952;28;37562;-66
2023/08/26 00:24:17;;;;;;;63.83;33.15;;;;;;;-146.25;100.00;52291.16;2080154;28;35001;-66
2023/08/26 00:25:21;;;;;;;63.08;33.85;;;;;;;-146.25;100.00;52291.16;2080134;28;36813;-66
2023/08/26 00:26:23;;;;;;;65.18;33.55;;;;;;;-146.25;100.00;52293.19;2080601;28;34627;-67
2023/08/26 00:27:25;;;;;;;70.00;36.17;;;;;;;-146.25;100.00;52295.19;2080577;28;28089;-66
2023/08/26 00:28:26;;;;;;;63.50;34.35;;;;;;;-146.25;100.00;52313.44;2080343;28;20119;-65
2023/08/26 00:29:28;;;;;;;67.10;35.13;;;;;;;-146.25;100.00;52293.19;2071659;28;20161;-66
2023/08/26 00:30:32;;;;;;;67.50;35.30;;;;;;;-146.25;100.00;52285.06;2079681;28;20328;-66
2023/08/26 00:31:34;;;;;;;63.75;33.58;;;;;;;-146.25;100.00;52295.19;2087852;28;27238;-66
2023/08/26 00:32:36;;;;;;;67.20;34.33;;;;;;;-146.25;100.00;52307.38;2079885;28;25438;-65
2023/08/26 00:33:42;;;;;;;64.88;32.08;;;;;;;-146.25;100.00;52297.22;2080389;28;20049;-66
2023/08/26 00:34:44;;;;;;;67.60;34.25;;;;;;;-146.25;100.00;52327.66;2088596;28;20155;-67
2023/08/26 00:35:47;;;;;;;64.82;34.33;;;;;;;-146.25;100.00;52276.97;2080099;28;20037;-65
2023/08/26 00:36:48;;;;;;;61.53;32.97;;;;;;;-146.25;100.00;52274.94;2064008;28;24643;-66
2023/08/26 00:37:54;;;;;;;55.40;31.58;;;;;;;-146.25;100.00;52325.63;2071890;28;20120;-66
2023/08/26 00:38:57;;;;;;;59.58;33.28;;;;;;;-146.25;100.00;52293.19;2080636;28;20156;-66
2023/08/26 00:39:59;;;;;;;59.72;32.63;;;;;;;-146.25;100.00;52309.41;2080057;28;20964;-67
2023/08/26 00:41:03;;;;;;;65.68;33.25;;;;;;;-146.25;100.00;52315.47;2080389;28;20112;-66
2023/08/26 00:42:06;;;;;;;55.30;32.58;;;;;;;-146.25;100.00;52260.72;2088408;28;20046;-66
2023/08/26 00:43:08;;;;;;;64.32;34.22;;;;;;;-146.25;100.00;52331.69;2079875;28;20176;-66
2023/08/26 00:44:12;;;;;;;58.20;34.08;;;;;;;-146.25;100.00;52295.19;2080020;28;20049;-66
2023/08/26 00:45:14;;;;;;;58.30;32.38;;;;;;;-146.25;100.00;52327.66;2080291;28;22001;-66
2023/08/26 00:46:16;;;;;;;64.57;33.42;;;;;;;-146.25;100.00;52325.63;2071579;28;20145;-66
2023/08/26 00:47:18;;;;;;;64.82;34.10;;;;;;;-146.25;100.00;52311.44;2079984;28;29583;-66
2023/08/26 00:48:20;;;;;;;63.08;34.38;;;;;;;-146.25;100.00;52295.19;2088182;28;20058;-66
2023/08/26 00:49:22;;;;;;;59.70;34.03;;;;;;;-146.25;100.00;52283.03;2079337;28;33810;-66
2023/08/26 00:50:24;;;;;;;59.08;32.03;;;;;;;-146.25;100.00;52266.81;2071817;28;20091;-65
2023/08/26 00:51:28;;;;;;;58.78;32.85;;;;;;;-146.25;100.00;52295.19;2080328;28;20030;-66
2023/08/26 00:52:30;;;;;;;66.47;35.72;;;;;;;-146.25;100.00;52299.25;2080696;28;20046;-66
2023/08/26 00:53:33;;;;;;;61.20;34.75;;;;;;;-146.25;100.00;52321.56;2088279;28;20043;-66
2023/08/26 00:54:35;;;;;;;69.00;35.17;;;;;;;-146.25;100.00;52309.41;2079983;28;20857;-67
2023/08/26 00:55:39;;;;;;;63.60;35.05;;;;;;;-146.25;100.00;52266.81;2080333;28;20049;-66
2023/08/26 00:56:42;;;;;;;60.42;33.80;;;;;;;-146.25;100.00;52295.19;2079674;28;20033;-66
2023/08/26 00:57:47;;;;;;;63.55;34.85;;;;;;;-146.25;100.00;52264.78;2080234;28;20164;-65
2023/08/26 00:58:49;;;;;;;65.03;35.95;;;;;;;-146.25;100.00;52339.81;2079977;28;20042;-66
2023/08/26 00:59:51;;;;;;;64.50;33.80;;;;;;;-146.25;100.00;52281.00;2071799;28;26342;-66
2023/08/26 01:00:54;;;;;;;58.03;33.13;;;;;;;-146.25;100.00;52321.56;2071903;28;25619;-66
2023/08/26 01:01:57;;;;;;;66.15;35.70;;;;;;;-146.25;100.00;52260.72;2080084;28;27667;-66
2023/08/26 01:03:01;;;;;;;57.90;34.33;;;;;;;-146.25;100.00;52274.94;2087638;28;32340;-66
2023/08/26 01:04:06;;;;;;;63.30;35.20;;;;;;;-146.25;100.00;52274.94;2087812;28;20177;-67
2023/08/26 01:05:08;;;;;;;63.50;35.78;;;;;;;-146.25;100.00;52297.22;2079675;28;37072;-66
2023/08/26 01:06:10;;;;;;;67.93;34.53;;;;;;;-146.25;100.00;52293.19;2079951;28;25612;-66
2023/08/26 01:07:12;;;;;;;60.35;33.60;;;;;;;-146.25;100.00;52270.88;2080618;28;20093;-66
2023/08/26 01:08:14;;;;;;;60.78;34.78;;;;;;;-146.25;100.00;52305.34;2087514;28;34405;-66
2023/08/26 01:09:16;;;;;;;61.25;34.70;;;;;;;-146.25;100.00;52278.97;2080063;28;34589;-66
2023/08/26 01:10:19;;;;;;;58.22;32.80;;;;;;;-146.25;100.00;52285.06;2079776;28;23852;-65
2023/08/26 01:11:42;;;;;;;68.35;35.58;;;;;;;-146.25;100.00;52250.59;2071622;28;25438;-65
2023/08/26 01:13:01;;;;;;;63.13;34.95;;;;;;;-146.25;100.00;52254.66;2083481;28;20093;-68
2023/08/26 01:14:31;;;;;;;61.42;34.35;;;;;;;-146.25;100.00;52303.31;2079425;28;36625;-67
2023/08/26 01:15:37;;;;;;;;;;;;;;;-146.25;100.00;52295.19;2080899;28;20696;-68
2023/08/26 01:16:42;;;;;;;58.78;32.25;;;;;;;-146.25;100.00;52315.47;2080394;28;36199;-67
2023/08/26 01:17:45;;;;;;;63.17;33.58;;;;;;;-146.25;100.00;52291.16;2079452;28;32844;-66
2023/08/26 01:18:47;;;;;;;70.32;36.88;;;;;;;-146.25;100.00;52333.72;2079594;28;24531;-66
2023/08/26 01:19:49;;;;;;;63.78;35.38;;;;;;;-146.25;100.00;52270.88;2080199;28;20096;-67
2023/08/26 01:20:52;;;;;;;63.67;35.80;;;;;;;-146.25;100.00;52305.34;2080035;28;20147;-67
2023/08/26 01:22:00;;;;;;;65.22;35.67;;;;;;;-146.25;100.00;52307.38;2063618;28;20043;-66
2023/08/26 01:23:10;;;;;;;69.60;36.83;;;;;;;-146.25;100.00;52315.47;2072188;28;20225;-66
2023/08/26 01:24:12;;;;;;;;;;;;;;;-146.25;100.00;52274.94;2073107;28;20058;-67
2023/08/26 01:25:16;;;;;;;69.20;36.20;;;;;;;-146.25;100.00;52285.06;2079992;28;19925;-66
2023/08/26 01:26:18;;;;;;;65.32;35.17;;;;;;;-146.25;100.00;52287.09;2079937;28;20050;-67
2023/08/26 01:27:20;;;;;;;66.05;35.42;;;;;;;-146.25;100.00;52291.16;2079674;28;22724;-68
2023/08/26 01:28:22;;;;;;;63.97;35.58;;;;;;;-146.25;100.00;52311.44;2079313;28;27060;-66
2023/08/26 01:29:23;;;;;;;70.32;37.58;;;;;;;-146.25;100.00;52315.47;2079960;28;25744;-67
2023/08/26 01:30:27;;;;;;;64.03;35.90;;;;;;;-146.25;100.00;52299.25;2080400;28;29116;-67
2023/08/26 01:31:31;;;;;;;66.53;35.72;;;;;;;-146.25;100.00;52325.63;2079820;28;20068;-67
2023/08/26 01:33:00;;;;;;;63.38;35.70;;;;;;;-146.25;100.00;52268.84;2064516;28;20907;-67
2023/08/26 01:34:20;;;;;;;69.65;37.40;;;;;;;-146.25;100.00;52272.91;2068658;28;20058;-66
2023/08/26 01:35:30;;;;;;;63.42;35.88;;;;;;;-146.25;100.00;52291.16;2079774;28;25268;-67
2023/08/26 01:36:37;;;;;;;68.00;37.10;;;;;;;-146.25;100.00;52307.38;2079428;28;20199;-67
2023/08/26 01:37:41;;;;;;;57.85;35.70;;;;;;;-146.25;100.00;52313.44;2071743;28;28314;-66
2023/08/26 01:38:45;;;;;;;64.70;37.17;;;;;;;-146.25;100.00;52258.72;2080249;28;20057;-67
2023/08/26 01:39:50;;;;;;;67.05;36.35;;;;;;;-146.25;100.00;52278.97;2079727;28;21084;-67
2023/08/26 01:40:56;;;;;;;59.70;34.88;;;;;;;-146.25;100.00;52315.47;2071699;28;30837;-66
2023/08/26 01:42:00;;;;;;;65.22;35.47;;;;;;;-146.25;100.00;52329.66;2071802;28;33091;-66
2023/08/26 01:43:03;;;;;;;62.05;37.00;;;;;;;-146.25;100.00;52285.06;2072091;28;29591;-67
2023/08/26 01:44:06;;;;;;;63.20;36.55;;;;;;;-146.25;100.00;52321.56;2072059;28;30602;-67
2023/08/26 01:45:08;;;;;;;62.10;37.35;;;;;;;-146.25;100.00;52331.69;2079594;28;20157;-66
2023/08/26 01:46:14;;;;;;;66.32;38.90;;;;;;;-146.25;100.00;52254.66;2079569;28;26988;-67
2023/08/26 01:47:16;;;;;;;61.72;37.85;;;;;;;-146.25;100.00;52311.44;2072079;28;20030;-67
2023/08/26 01:48:18;;;;;;;58.38;36.30;;;;;;;-146.25;100.00;52323.59;2079379;28;30892;-66
2023/08/26 01:49:20;;;;;;;54.10;35.30;;;;;;;-146.25;100.00;52274.94;2080064;28;30967;-65
2023/08/26 01:50:22;;;;;;;58.67;37.25;;;;;;;-146.25;100.00;52303.31;2071288;28;24564;-67
2023/08/26 01:51:23;;;;;;;63.80;36.97;;;;;;;-146.25;100.00;52305.34;2071639;28;22011;-67
2023/08/26 01:52:25;;;;;;;58.75;36.92;;;;;;;-146.25;100.00;52276.97;2087700;28;20107;-66
2023/08/26 01:53:27;;;;;;;56.13;37.20;;;;;;;-146.25;100.00;52325.63;2079014;28;20038;-67
2023/08/26 01:54:31;;;;;;;53.13;34.25;;;;;;;-146.25;100.00;52305.34;2080088;28;27576;-67
2023/08/26 01:55:33;;;;;;;57.25;35.88;;;;;;;-146.25;100.00;52303.31;2079290;28;31431;-67
2023/08/26 01:56:36;;;;;;;53.75;36.42;;;;;;;-146.25;100.00;52303.31;2079642;28;20081;-67
2023/08/26 01:57:38;;;;;;;57.38;36.20;;;;;;;-146.25;100.00;52319.53;2071496;28;20152;-67
2023/08/26 01:58:42;;;;;;;53.70;34.33;;;;;;;-146.25;100.00;52313.44;2071463;28;20064;-68
2023/08/26 01:59:44;;;;;;;52.38;35.25;;;;;;;-146.25;100.00;52256.69;2071970;28;20511;-68
2023/08/26 02:00:46;;;;;;;51.70;35.58;;;;;;;-146.25;100.00;52313.44;2078878;28;20800;-67
2023/08/26 02:01:48;;;;;;;48.35;32.83;;;;;;;-146.25;100.00;52319.53;2079341;28;20046;-67
2023/08/26 02:02:49;;;;;;;51.78;35.25;;;;;;;-146.25;100.00;52307.38;2079015;28;21951;-67
2023/08/26 02:03:51;;;;;;;52.83;34.70;;;;;;;-146.25;100.00;52299.25;2079134;28;20042;-67
2023/08/26 02:04:54;;;;;;;45.20;30.77;;;;;;;-146.25;100.00;52281.00;2079619;28;20140;-67
2023/08/26 02:05:56;;;;;;;47.85;31.08;;;;;;;-146.25;100.00;52343.88;2079040;28;20156;-67
2023/08/26 02:06:58;;;;;;;48.90;34.17;;;;;;;-146.25;100.00;52323.59;2071286;28;20120;-67
2023/08/26 02:08:00;;;;;;;44.25;31.83;;;;;;;-146.25;100.00;52331.69;2071303;28;20085;-66
2023/08/26 02:09:02;;;;;;;45.67;31.08;;;;;;;-146.25;100.00;52315.47;2071358;28;21070;-67
2023/08/26 02:10:04;;;;;;;50.83;33.03;;;;;;;-146.25;100.00;52272.91;2079232;28;30083;-67
2023/08/26 02:11:07;;;;;;;44.13;30.30;;;;;;;-146.25;100.00;52307.38;2087679;28;20128;-67
2023/08/26 02:12:08;;;;;;;44.63;31.40;;;;;;;-146.25;100.00;52303.31;2078761;28;20045;-66
2023/08/26 02:13:10;;;;;;;46.67;31.80;;;;;;;-146.25;100.00;52305.34;2079403;28;27769;-68
2023/08/26 02:14:12;;;;;;;43.83;30.85;;;;;;;-146.25;100.00;52303.31;2079404;28;20160;-67
2023/08/26 02:15:14;;;;;;;45.22;32.83;;;;;;;-146.25;100.00;52360.09;2079202;28;30488;-67
2023/08/26 02:16:18;;;;;;;48.38;33.20;;;;;;;-146.25;100.00;52307.38;2079824;28;20918;-67
2023/08/26 02:17:21;;;;;;;43.45;30.52;;;;;;;-146.25;100.00;52317.50;2079906;28;20153;-66
2023/08/26 02:18:23;;;;;;;42.65;31.20;;;;;;;-146.25;100.00;52291.16;2078934;28;31378;-66
2023/08/26 02:19:29;;;;;;;44.78;32.67;;;;;;;-146.25;100.00;52323.59;2079655;28;21018;-66
2023/08/26 02:20:32;;;;;;;45.40;31.52;;;;;;;-146.25;100.00;52323.59;2071358;28;20042;-67
2023/08/26 02:21:33;;;;;;;42.83;31.45;;;;;;;-146.25;100.00;52307.38;2063480;28;33278;-67
2023/08/26 02:22:36;;;;;;;47.55;30.35;;;;;;;-146.25;100.00;52307.38;2071332;28;20045;-67
2023/08/26 02:23:37;;;;;;;44.60;30.70;;;;;;;-146.25;100.00;52276.97;2078628;28;31868;-67
2023/08/26 02:24:41;;;;;;;44.60;30.77;;;;;;;-146.25;100.00;52311.44;2079162;28;28037;-67
2023/08/26 02:25:44;;;;;;;45.08;31.40;;;;;;;-146.25;100.00;52289.13;2071694;28;20046;-67
2023/08/26 02:26:45;;;;;;;49.13;31.55;;;;;;;-146.25;100.00;52317.50;2079485;28;21886;-67
2023/08/26 02:27:47;;;;;;;42.88;31.65;;;;;;;-146.25;100.00;52319.53;2079880;28;26779;-66
2023/08/26 02:28:50;;;;;;;42.33;31.02;;;;;;;-146.25;100.00;52287.09;2080156;28;20042;-66
2023/08/26 02:29:51;;;;;;;40.00;30.20;;;;;;;-146.25;100.00;52315.47;2079885;28;24020;-67
2023/08/26 02:30:53;;;;;;;40.85;30.05;;;;;;;-146.25;100.00;52303.31;2078692;28;23975;-67
2023/08/26 02:31:56;;;;;;;45.05;31.08;;;;;;;-146.25;100.00;52305.34;2079054;28;20045;-66
2023/08/26 02:32:58;;;;;;;46.58;31.63;;;;;;;-146.25;100.00;52323.59;2079636;28;20046;-67
2023/08/26 02:34:02;;;;;;;40.40;28.98;;;;;;;-146.25;100.00;52303.31;2079851;28;26732;-67
2023/08/26 02:35:04;;;;;;;46.10;31.35;;;;;;;-146.25;100.00;52305.34;2086942;28;33392;-66
2023/08/26 02:36:06;;;;;;;43.40;29.60;;;;;;;-146.25;100.00;52287.09;2079134;28;23140;-67
2023/08/26 02:37:10;;;;;;;42.13;30.45;;;;;;;-146.25;100.00;52301.28;2078892;28;27673;-67
2023/08/26 02:38:13;;;;;;;44.03;28.98;;;;;;;-146.25;100.00;52268.84;2080574;28;20891;-66
2023/08/26 02:39:17;;;;;;;43.72;31.85;;;;;;;-146.25;100.00;52256.69;2079214;28;20054;-67
2023/08/26 02:40:20;;;;;;;42.30;30.80;;;;;;;-146.25;100.00;52315.47;2072343;28;21209;-67
2023/08/26 02:41:21;;;;;;;41.55;29.85;;;;;;;-146.25;100.00;52305.34;2078831;28;29598;-67
2023/08/26 02:42:24;;;;;;;45.53;31.45;;;;;;;-146.25;100.00;52303.31;2087711;28;20874;-67
2023/08/26 02:43:26;;;;;;;43.97;32.22;;;;;;;-146.25;100.00;52307.38;2086949;28;31515;-67
2023/08/26 02:44:30;;;;;;;39.83;30.45;;;;;;;-146.25;100.00;52315.47;2087695;28;20041;-66
2023/08/26 02:45:32;;;;;;;43.70;31.48;;;;;;;-146.25;100.00;52317.50;2078971;28;20982;-66
2023/08/26 02:46:33;;;;;;;42.53;28.42;;;;;;;-146.25;100.00;52311.44;2070580;28;28351;-67
2023/08/26 02:47:35;;;;;;;47.30;32.05;;;;;;;-146.25;100.00;52250.59;2079070;28;29100;-67
2023/08/26 02:48:37;;;;;;;49.08;32.75;;;;;;;-146.25;100.00;52323.59;2080072;28;26470;-67
2023/08/26 02:49:39;;;;;;;45.53;32.58;;;;;;;-146.25;100.00;52319.53;2079389;28;30631;-67
2023/08/26 02:50:40;;;;;;;49.08;34.08;;;;;;;-146.25;100.00;52325.63;2087357;28;32682;-67
2023/08/26 02:51:43;;;;;;;49.97;33.55;;;;;;;-146.25;100.00;52303.31;2087219;28;20064;-67
2023/08/26 02:52:44;;;;;;;51.45;34.70;;;;;;;-146.25;100.00;52311.44;2079988;28;28742;-67
2023/08/26 02:53:46;;;;;;;45.75;33.03;;;;;;;-146.25;100.00;52315.47;2081057;28;26874;-67
2023/08/26 02:54:48;;;;;;;50.05;34.53;;;;;;;-146.25;100.00;52303.31;2081477;28;20930;-67
2023/08/26 02:55:52;;;;;;;49.88;34.83;;;;;;;-146.25;100.00;52347.91;2080739;28;31101;-67
2023/08/26 02:56:54;;;;;;;53.30;35.72;;;;;;;-146.25;100.00;52315.47;2080824;28;28834;-66
2023/08/26 02:57:56;;;;;;;53.15;34.78;;;;;;;-146.25;100.00;52323.59;2080336;28;26573;-66
2023/08/26 02:58:58;;;;;;;49.90;33.80;;;;;;;-146.25;100.00;52327.66;2080303;28;34821;-67
2023/08/26 03:00:00;;;;;;;50.25;34.70;;;;;;;-146.25;100.00;52347.91;2080576;28;20195;-67
2023/08/26 03:01:06;;;;;;;58.92;37.42;;;;;;;-146.25;100.00;52319.53;2081141;28;20046;-67
2023/08/26 03:02:09;;;;;;;54.17;36.22;;;;;;;-146.25;100.00;52305.34;2080172;28;20855;-66
2023/08/26 03:03:14;;;;;;;54.28;36.80;;;;;;;-146.25;100.00;52301.28;2073225;28;20089;-67
2023/08/26 03:04:18;;;;;;;57.53;36.88;;;;;;;-146.25;100.00;52323.59;2073153;28;21025;-67
2023/08/26 03:05:20;;;;;;;55.03;36.17;;;;;;;-146.25;100.00;52307.38;2081043;28;20927;-67
2023/08/26 03:06:21;;;;;;;58.13;38.35;;;;;;;-146.25;100.00;52297.22;2080895;28;28862;-66
2023/08/26 03:07:23;;;;;;;55.15;37.22;;;;;;;-146.25;100.00;52335.75;2081619;28;26056;-66
2023/08/26 03:08:26;;;;;;;57.72;38.25;;;;;;;-146.25;100.00;52293.19;2088481;28;21180;-67
2023/08/26 03:09:28;;;;;;;57.75;37.20;;;;;;;-146.25;100.00;52317.50;2080811;28;24882;-66
2023/08/26 03:10:33;;;;;;;56.45;36.67;;;;;;;-146.25;100.00;52299.25;2080795;28;20034;-66
2023/08/26 03:11:37;;;;;;;54.03;35.15;;;;;;;-146.25;100.00;52307.38;2080838;28;25114;-67
2023/08/26 03:12:40;;;;;;;57.22;38.05;;;;;;;-146.25;100.00;52287.09;2088814;28;20053;-66
2023/08/26 03:13:43;;;;;;;57.72;35.88;;;;;;;-146.25;100.00;52289.13;2081648;28;20120;-66
2023/08/26 03:14:45;;;;;;;58.20;37.13;;;;;;;-146.25;100.00;52313.44;2080391;28;26504;-67
2023/08/26 03:15:47;;;;;;;57.97;39.00;;;;;;;-146.25;100.00;52305.34;2080259;28;20053;-67
2023/08/26 03:16:49;;;;;;;53.30;34.90;;;;;;;-146.25;100.00;52311.44;2072321;28;20073;-67
2023/08/26 03:17:51;;;;;;;60.38;38.58;;;;;;;-146.25;100.00;52311.44;2072797;28;20038;-66
2023/08/26 03:18:53;;;;;;;52.78;36.50;;;;;;;-146.25;100.00;52289.13;2080288;28;20049;-66
2023/08/26 03:19:56;;;;;;;56.58;38.53;;;;;;;-146.25;100.00;52268.84;2080862;28;20065;-66
2023/08/26 03:21:06;;;;;;;55.85;36.38;;;;;;;-146.25;100.00;52315.47;2080822;28;20048;-67
2023/08/26 03:22:08;;;;;;;57.00;36.45;;;;;;;-146.25;100.00;52319.53;2081296;28;20168;-66
2023/08/26 03:23:12;;;;;;;53.92;36.75;;;;;;;-146.25;100.00;52356.03;2080558;28;20882;-67
2023/08/26 03:24:17;;;;;;;53.17;36.33;;;;;;;-146.25;100.00;52309.41;2080753;28;20180;-67
2023/08/26 03:25:21;;;;;;;52.17;35.47;;;;;;;-146.25;100.00;52309.41;2072342;28;20566;-67
2023/08/26 03:26:25;;;;;;;58.92;37.05;;;;;;;-146.25;100.00;52315.47;2073057;28;20050;-67
2023/08/26 03:27:27;;;;;;;48.55;33.53;;;;;;;-146.25;100.00;52311.44;2072236;28;20054;-67
2023/08/26 03:28:31;;;;;;;52.45;32.55;;;;;;;-146.25;100.00;52335.75;2064765;28;20909;-66
2023/08/26 03:29:36;;;;;;;48.63;33.08;;;;;;;-146.25;100.00;52303.31;2072726;28;20912;-66
2023/08/26 03:30:38;;;;;;;51.20;34.00;;;;;;;-146.25;100.00;52299.25;2072522;28;21013;-66
2023/08/26 03:31:43;;;;;;;48.20;34.25;;;;;;;-146.25;100.00;52333.72;2064186;28;20042;-67
2023/08/26 03:32:50;;;;;;;49.53;33.33;;;;;;;-146.25;100.00;52327.66;2072963;28;20939;-67
2023/08/26 03:33:56;;;;;;;48.08;32.92;;;;;;;-146.25;100.00;52287.09;2072055;28;20047;-66
2023/08/26 03:34:58;;;;;;;47.80;32.28;;;;;;;-146.25;100.00;52293.19;2071589;28;35656;-65
2023/08/26 03:36:04;;;;;;;45.53;31.35;;;;;;;-146.25;100.00;52360.09;2080451;28;20050;-67
2023/08/26 03:37:06;;;;;;;42.75;31.50;;;;;;;-146.25;100.00;52319.53;2080702;28;20867;-67
2023/08/26 03:38:07;;;;;;;48.53;32.72;;;;;;;-146.25;100.00;52327.66;2064259;28;20046;-67
2023/08/26 03:39:11;;;;;;;44.03;29.70;;;;;;;-146.25;100.00;52301.28;2063863;28;25301;-66
2023/08/26 03:40:13;;;;;;;43.63;30.17;;;;;;;-146.25;100.00;52329.66;2071730;28;32170;-66
2023/08/26 03:41:15;;;;;;;43.75;29.67;;;;;;;-146.25;100.00;52327.66;2072438;28;36936;-67
2023/08/26 03:42:17;;;;;;;45.78;31.05;;;;;;;-146.25;100.00;52315.47;2080505;28;20157;-67
2023/08/26 03:43:22;;;;;;;41.45;30.10;;;;;;;-146.25;100.00;52297.22;2072165;28;20097;-66
2023/08/26 03:44:24;;;;;;;43.10;28.60;;;;;;;-146.25;100.00;52287.09;2065307;28;29603;-66
2023/08/26 03:45:28;;;;;;;38.85;27.92;;;;;;;-146.25;100.00;52313.44;2064227;28;24167;-67
2023/08/26 03:46:32;;;;;;;37.33;27.30;;;;;;;-146.25;100.00;52343.88;2072069;28;26177;-66
2023/08/26 03:47:34;;;;;;;39.20;28.02;;;;;;;-146.25;100.00;52333.72;2072878;28;20934;-66
2023/08/26 03:48:36;;;;;;;41.95;28.73;;;;;;;-146.25;100.00;52313.44;2071892;28;28808;-66
2023/08/26 03:49:38;;;;;;;37.53;27.70;;;;;;;-146.25;100.00;52335.75;2072482;28;20049;-67
2023/08/26 03:50:52;;;;;;;35.55;26.30;;;;;;;-146.25;100.00;52295.19;2071724;28;30866;-66
2023/08/26 03:51:55;;;;;;;35.63;26.13;;;;;;;-146.25;100.00;52329.66;2074047;28;20050;-65
2023/08/26 03:52:58;;;;;;;38.67;26.00;;;;;;;-146.25;100.00;52323.59;2086568;28;20123;-65
2023/08/26 03:54:02;;;;;;;34.97;26.05;;;;;;;-146.25;100.00;52313.44;2080032;28;20054;-66
2023/08/26 03:55:05;;;;;;;33.83;24.45;;;;;;;-146.25;100.00;52341.84;2080230;28;29775;-67
2023/08/26 03:56:07;;;;;;;32.90;24.10;;;;;;;-146.25;100.00;52372.25;2088390;28;21004;-66
2023/08/26 03:57:10;;;;;;;33.15;25.25;;;;;;;-146.25;100.00;52315.47;2087649;28;20046;-67
2023/08/26 03:58:13;;;;;;;34.42;25.80;;;;;;;-146.25;100.00;52321.56;2080262;28;20046;-66
2023/08/26 03:59:15;;;;;;;39.35;26.70;;;;;;;-146.25;100.00;52317.50;2080006;28;35234;-67
2023/08/26 04:00:17;;;;;;;35.40;25.50;;;;;;;-146.25;100.00;52333.72;2080550;28;20905;-66
2023/08/26 04:01:22;;;;;;;33.22;23.98;;;;;;;-146.25;100.00;52303.31;2081241;28;20045;-66
2023/08/26 04:02:24;;;;;;;36.90;26.48;;;;;;;-146.25;100.00;52372.25;2080070;28;20855;-67
2023/08/26 04:03:26;;;;;;;35.83;25.63;;;;;;;-146.25;100.00;52299.25;2080532;28;25661;-66
2023/08/26 04:04:27;;;;;;;39.08;27.98;;;;;;;-146.25;100.00;52313.44;2079863;28;31266;-66
2023/08/26 04:05:29;;;;;;;41.72;26.35;;;;;;;-146.25;100.00;52339.81;2079877;28;20139;-67
2023/08/26 04:06:31;;;;;;;35.85;25.60;;;;;;;-146.25;100.00;52313.44;2080266;28;20116;-66
2023/08/26 04:07:33;;;;;;;37.22;26.88;;;;;;;-146.25;100.00;52325.63;2080020;28;24774;-66
2023/08/26 04:08:38;;;;;;;36.80;26.05;;;;;;;-146.25;100.00;52321.56;2080713;28;20149;-66
2023/08/26 04:09:40;;;;;;;40.45;25.02;;;;;;;-146.25;100.00;52327.66;2080570;28;20046;-67
2023/08/26 04:10:44;;;;;;;33.60;24.90;;;;;;;-146.25;100.00;52315.47;2071969;28;20823;-67
2023/08/26 04:11:48;;;;;;;39.63;26.90;;;;;;;-146.25;100.00;52356.03;2080461;28;20180;-67
2023/08/26 04:12:52;;;;;;;37.97;24.75;;;;;;;-146.25;100.00;52323.59;2079961;28;25360;-66
2023/08/26 04:13:54;;;;;;;37.30;25.85;;;;;;;-146.25;100.00;52335.75;2072618;28;20918;-66
2023/08/26 04:14:55;;;;;;;38.20;26.20;;;;;;;-146.25;100.00;52347.91;2080616;28;20145;-66
2023/08/26 04:16:02;;;;;;;44.05;28.13;;;;;;;-146.25;100.00;52331.69;2080148;28;21590;-66
2023/08/26 04:17:04;;;;;;;39.95;25.90;;;;;;;-146.25;100.00;52319.53;2088334;28;20052;-68
2023/08/26 04:18:07;;;;;;;42.35;27.25;;;;;;;-146.25;100.00;52299.25;2080241;28;20160;-67
2023/08/26 04:19:08;;;;;;;39.08;25.63;;;;;;;-146.25;100.00;52356.03;2072155;28;20129;-67
2023/08/26 04:20:13;;;;;;;39.38;26.13;;;;;;;-146.25;100.00;52339.81;2080853;28;20030;-67
2023/08/26 04:21:15;;;;;;;35.33;23.95;;;;;;;-146.25;100.00;52325.63;2088073;28;20053;-66
2023/08/26 04:22:17;;;;;;;36.70;23.90;;;;;;;-146.25;100.00;52327.66;2080152;28;27944;-67
2023/08/26 04:23:19;;;;;;;35.92;23.35;;;;;;;-146.25;100.00;52356.03;2079872;28;32192;-66
2023/08/26 04:24:22;;;;;;;35.08;23.30;;;;;;;-146.25;100.00;52311.44;2080616;28;22443;-66
2023/08/26 04:25:26;;;;;;;37.70;25.42;;;;;;;-146.25;100.00;52347.91;2080097;28;20152;-67
2023/08/26 04:26:30;;;;;;;36.50;24.60;;;;;;;-146.25;100.00;52307.38;2080460;28;22584;-66
2023/08/26 04:27:34;;;;;;;37.03;24.33;;;;;;;-146.25;100.00;52313.44;2079587;28;21076;-66
2023/08/26 04:28:35;;;;;;;34.83;24.25;;;;;;;-146.25;100.00;52370.22;2070996;28;31968;-67
2023/08/26 04:29:37;;;;;;;34.88;24.00;;;;;;;-146.25;100.00;52349.94;2072239;28;20047;-66
2023/08/26 04:30:39;;;;;;;36.22;24.60;;;;;;;-146.25;100.00;52329.66;2079935;28;27426;-66
2023/08/26 04:31:41;;;;;;;41.83;25.35;;;;;;;-146.25;100.00;52337.78;2088240;28;20101;-66
2023/08/26 04:32:44;;;;;;;35.63;24.15;;;;;;;-146.25;100.00;52347.91;2080381;28;20049;-66
2023/08/26 04:33:46;;;;;;;38.95;24.40;;;;;;;-146.25;100.00;52335.75;2080036;28;27824;-66
2023/08/26 04:34:48;;;;;;;39.00;25.35;;;;;;;-146.25;100.00;52331.69;2080719;28;20092;-66
2023/08/26 04:35:50;;;;;;;38.15;25.63;;;;;;;-146.25;100.00;52299.25;2087679;28;29505;-66
2023/08/26 04:36:51;;;;;;;36.67;24.30;;;;;;;-146.25;100.00;52339.81;2087900;28;32821;-67
2023/08/26 04:37:54;;;;;;;41.38;26.65;;;;;;;-146.25;100.00;52333.72;2080338;28;20046;-67
2023/08/26 04:38:57;;;;;;;38.28;25.65;;;;;;;-146.25;100.00;52331.69;2079890;28;30104;-66
2023/08/26 04:39:58;;;;;;;36.85;25.27;;;;;;;-146.25;100.00;52351.97;2080239;28;20104;-66
2023/08/26 04:41:01;;;;;;;41.88;25.30;;;;;;;-146.25;100.00;52366.16;2072173;28;20177;-66